Flight Track Log - Related Links

Times and Time Zones

All times are in EDT time to prevent confusion due to time zone crossing. See the UAL1674 flight status page for this flight to view local times or setup timezone preferences in your user account.

Time Position Orientation Groundspeed Altitude Reporting Facility
EDT Latitude Longitude Course Direction KTS MPH feet Rate Location/Type
Wed 09:19:32 AM 47.3878 -122.3000 353° North  Level FlightAware Approximate
Wed 09:19:43 AM 47.4278 -122.3078 169° South 176 203 1,300  Level Seattle Center
Wed 09:24:03 AM 47.1422 -122.2225 152° Southeast 293 337 10,400 2,037 Climbing Seattle Center
Wed 09:25:04 AM 47.0650 -122.1633 165° South 319 367 12,200 2,016 Climbing Seattle Center
Wed 09:26:05 AM 46.9764 -122.1294 164° South 333 383 14,500 2,281 Climbing Seattle Center
Wed 09:27:05 AM 46.8869 -122.0931 152° Southeast 336 387 16,800 1,983 Climbing Seattle Center
Wed 09:28:06 AM 46.8033 -122.0275 124° Southeast 359 413 18,500 1,820 Climbing Seattle Center
Wed 09:29:07 AM 46.7300 -121.8692 121° Southeast 400 460 20,500 1,770 Climbing Seattle Center
Wed 09:30:08 AM 46.6711 -121.7253 123° Southeast 413 475 22,100 1,475 Climbing Seattle Center
Wed 09:31:09 AM 46.6114 -121.5892 123° Southeast 418 481 23,500 1,339 Climbing Seattle Center
Wed 09:32:09 AM 46.5478 -121.4444 123° Southeast 422 486 24,800 1,339 Climbing Seattle Center
Wed 09:33:10 AM 46.4822 -121.2969 122° Southeast 431 496 26,200 1,279 Climbing Seattle Center
Wed 09:34:11 AM 46.4158 -121.1442 123° Southeast 443 510 27,400 1,180 Climbing Seattle Center
Wed 09:35:12 AM 46.3475 -120.9928 123° Southeast 449 517 28,600 1,082 Climbing Seattle Center
Wed 09:36:13 AM 46.2783 -120.8383 123° Southeast 454 522 29,600 843 Climbing Seattle Center
Wed 09:37:13 AM 46.2083 -120.6822 123° Southeast 461 531 30,300 744 Climbing Seattle Center
Wed 09:38:14 AM 46.1233 -120.4950 123° Southeast 465 535 31,100 885 Climbing Seattle Center
Wed 09:39:15 AM 46.0514 -120.3361 124° Southeast 471 542 32,100 885 Climbing Seattle Center
Wed 09:40:16 AM 45.9794 -120.1800 124° Southeast 472 543 32,900 443 Climbing Seattle Center
Wed 09:41:17 AM 45.9075 -120.0244 124° Southeast 469 540 33,000 49 Climbing Seattle Center
Wed 09:42:18 AM 45.8353 -119.8694 123° Southeast 469 540 33,000  Level Seattle Center
Wed 09:43:19 AM 45.7633 -119.7133 124° Southeast 470 541 33,000  Level Seattle Center
Wed 09:44:20 AM 45.6911 -119.5617 124° Southeast 466 536 33,000 -49 Level Seattle Center
Wed 09:45:21 AM 45.6186 -119.4072 124° Southeast 466 536 32,900  Descending Seattle Center
Wed 09:46:21 AM 45.5453 -119.2544 124° Southeast 467 537 33,000 50 Climbing Seattle Center
Wed 09:47:22 AM 45.4733 -119.1017 125° Southeast 467 537 33,000  Level Seattle Center
Wed 09:48:23 AM 45.3994 -118.9500 124° Southeast 466 536 33,000  Level Seattle Center
Wed 09:49:24 AM 45.3278 -118.8000 125° Southeast 462 532 33,000  Level Seattle Center
Wed 09:50:25 AM 45.2544 -118.6514 125° Southeast 461 531 33,000  Level Seattle Center
Wed 09:51:26 AM 45.1822 -118.5025 125° Southeast 460 529 33,000  Level Seattle Center
Wed 09:52:27 AM 45.0956 -118.3256 125° Southeast 458 527 33,000  Level Seattle Center
Wed 09:53:28 AM 45.0231 -118.1781 125° Southeast 459 528 33,000  Level Seattle Center
Wed 09:54:29 AM 44.9539 -118.0369 121° Southeast 459 528 33,000  Level Seattle Center
Wed 09:55:30 AM 44.8794 -117.8597 121° Southeast 469 540 33,000  Level Seattle Center
Wed 09:56:31 AM 44.8153 -117.7108 121° Southeast 466 536 33,000  Level Seattle Center
Wed 09:57:32 AM 44.7508 -117.5628 122° Southeast 465 535 33,000  Level Salt Lake Center
Wed 09:58:33 AM 44.6744 -117.3925 122° Southeast 463 533 33,000  Level Salt Lake Center
Wed 09:59:35 AM 44.6097 -117.2447 122° Southeast 464 534 33,000  Level Salt Lake Center
Wed 10:00:37 AM 44.5325 -117.0722 122° Southeast 468 539 33,000  Level Salt Lake Center
Wed 10:01:38 AM 44.4667 -116.9242 122° Southeast 469 540 33,000  Level Salt Lake Center
Wed 10:02:40 AM 44.4011 -116.7772 122° Southeast 468 539 33,000  Level Salt Lake Center
Wed 10:03:54 AM 44.3128 -116.5836 122° Southeast 466 536 33,000  Level Salt Lake Center
Wed 10:04:56 AM 44.2358 -116.4153 122° Southeast 465 535 33,000  Level Salt Lake Center
Wed 10:05:58 AM 44.1706 -116.2717 123° Southeast 464 534 33,000  Level Salt Lake Center
Wed 10:06:59 AM 44.0939 -116.1047 123° Southeast 463 533 33,000  Level Salt Lake Center
Wed 10:08:01 AM 44.0272 -115.9614 123° Southeast 463 533 33,000  Level Salt Lake Center
Wed 10:09:03 AM 43.9508 -115.7969 123° Southeast 459 528 33,000  Level Salt Lake Center
Wed 10:10:05 AM 43.8842 -115.6531 123° Southeast 461 531 33,000  Level Salt Lake Center
Wed 10:11:06 AM 43.8064 -115.4878 123° Southeast 460 529 33,000  Level Salt Lake Center
Wed 10:12:08 AM 43.7403 -115.3456 124° Southeast 460 529 33,000  Level Salt Lake Center
Wed 10:13:10 AM 43.6725 -115.2042 123° Southeast 461 531 33,000  Level Salt Lake Center
Wed 10:14:12 AM 43.5942 -115.0394 123° Southeast 460 529 33,000  Level Salt Lake Center
Wed 10:15:13 AM 43.5264 -114.8978 123° Southeast 462 532 33,000  Level Salt Lake Center
Wed 10:16:15 AM 43.4469 -114.7319 124° Southeast 464 534 33,000  Level Salt Lake Center
Wed 10:17:17 AM 43.3778 -114.5906 124° Southeast 465 535 33,000  Level Salt Lake Center
Wed 10:18:19 AM 43.2975 -114.4242 124° Southeast 467 537 33,000  Level Salt Lake Center
Wed 10:19:20 AM 43.2278 -114.2828 124° Southeast 467 537 33,000  Level Salt Lake Center
Wed 10:20:22 AM 43.1556 -114.1378 124° Southeast 469 540 33,000  Level Salt Lake Center
Wed 10:21:24 AM 43.0819 -113.9883 124° Southeast 469 540 33,000  Level Salt Lake Center
Wed 10:22:26 AM 43.0053 -113.8350 124° Southeast 467 537 33,000  Level Salt Lake Center
Wed 10:23:28 AM 42.9244 -113.6722 125° Southeast 465 535 33,000  Level Salt Lake Center
Wed 10:24:30 AM 42.8544 -113.5339 124° Southeast 463 533 33,000  Level Salt Lake Center
Wed 10:25:32 AM 42.7742 -113.3747 124° Southeast 459 528 33,000  Level Salt Lake Center
Wed 10:26:34 AM 42.7053 -113.2381 125° Southeast 459 528 33,000  Level Salt Lake Center
Wed 10:27:35 AM 42.6306 -113.0939 125° Southeast 455 524 33,000  Level Salt Lake Center
Wed 10:28:37 AM 42.5569 -112.9519 125° Southeast 455 524 33,000  Level Salt Lake Center
Wed 10:29:39 AM 42.4836 -112.8086 125° Southeast 457 526 33,000  Level Salt Lake Center
Wed 10:30:41 AM 42.4097 -112.6653 125° Southeast 458 527 33,000  Level Salt Lake Center
Wed 10:31:43 AM 42.3236 -112.5000 125° Southeast 458 527 33,000  Level Salt Lake Center
Wed 10:32:45 AM 42.2497 -112.3583 125° Southeast 457 526 33,000  Level Salt Lake Center
Wed 10:33:47 AM 42.1753 -112.2172 125° Southeast 457 526 33,000  Level Salt Lake Center
Wed 10:34:49 AM 42.1014 -112.0769 126° Southeast 456 525 33,000  Level Salt Lake Center
Wed 10:35:51 AM 42.0272 -111.9386 126° Southeast 452 520 33,000  Level Salt Lake Center
Wed 10:36:53 AM 41.9536 -111.8000 126° Southeast 451 519 33,000  Level Salt Lake Center
Wed 10:37:55 AM 41.8789 -111.6614 126° Southeast 452 520 33,000  Level Salt Lake Center
Wed 10:38:57 AM 41.8056 -111.5244 126° Southeast 449 517 33,000  Level Salt Lake Center
Wed 10:39:59 AM 41.7194 -111.3658 126° Southeast 447 514 33,000  Level Salt Lake Center
Wed 10:41:01 AM 41.6467 -111.2303 126° Southeast 444 511 33,000  Level Salt Lake Center
Wed 10:42:03 AM 41.5722 -111.0947 126° Southeast 445 512 33,000  Level Salt Lake Center
Wed 10:43:05 AM 41.4983 -110.9603 126° Southeast 445 512 33,000  Level Salt Lake Center
Wed 10:44:07 AM 41.4272 -110.8314 126° Southeast 445 512 33,000  Level Salt Lake Center
Wed 10:45:09 AM 41.3456 -110.6836 127° Southeast 445 512 33,000  Level Salt Lake Center
Wed 10:46:11 AM 41.2753 -110.5575 126° Southeast 445 512 33,000  Level Salt Lake Center
Wed 10:47:13 AM 41.1931 -110.4097 127° Southeast 446 513 33,000  Level Salt Lake Center
Wed 10:48:15 AM 41.1231 -110.2844 127° Southeast 444 511 33,000  Level Salt Lake Center
Wed 10:49:17 AM 41.0406 -110.1372 127° Southeast 446 513 33,000  Level Salt Lake Center
Wed 10:50:20 AM 40.9689 -110.0111 127° Southeast 449 517 33,000  Level Salt Lake Center
Wed 10:51:22 AM 40.8864 -109.8650 127° Southeast 447 514 33,000  Level Salt Lake Center
Wed 10:52:24 AM 40.8122 -109.7342 127° Southeast 447 514 33,000  Level Salt Lake Center
Wed 10:53:26 AM 40.7400 -109.6086 127° Southeast 447 514 33,000  Level Salt Lake Center
Wed 10:54:28 AM 40.6561 -109.4633 127° Southeast 445 512 33,000  Level Salt Lake Center
Wed 10:55:31 AM 40.5842 -109.3386 127° Southeast 446 513 33,000  Level Salt Lake Center
Wed 10:56:33 AM 40.5011 -109.1942 127° Southeast 444 511 33,000  Level Salt Lake Center
Wed 10:57:35 AM 40.4289 -109.0706 128° Southeast 444 511 33,000  Level Salt Lake Center
Wed 10:58:37 AM 40.3447 -108.9272 127° Southeast 443 510 33,000  Level Salt Lake Center
Wed 10:59:40 AM 40.2728 -108.8042 127° Southeast 443 510 33,000  Level Salt Lake Center
Wed 11:00:42 AM 40.1900 -108.6631 127° Southeast 438 504 33,000  Level Salt Lake Center
Wed 11:01:44 AM 40.1189 -108.5417 128° Southeast 437 503 33,000  Level Salt Lake Center
Wed 11:02:46 AM 40.0350 -108.4008 128° Southeast 436 502 33,000  Level Salt Lake Center
Wed 11:03:49 AM 39.9628 -108.2806 128° Southeast 438 504 33,000  Level Salt Lake Center
Wed 11:04:51 AM 39.8792 -108.1403 128° Southeast 437 503 33,000  Level Salt Lake Center
Wed 11:05:53 AM 39.8072 -108.0214 129° Southeast 436 502 33,000  Level Salt Lake Center
Wed 11:07:01 AM 39.7183 -107.8769 128° Southeast 432 497 33,000  Level Denver Center
Wed 11:08:01 AM 39.6508 -107.7650 128° Southeast 432 497 33,000  Level Denver Center
Wed 11:09:01 AM 39.5689 -107.6314 129° Southeast 432 497 33,000  Level Denver Center
Wed 11:10:01 AM 39.4931 -107.5092 129° Southeast 427 491 33,000  Level Denver Center
Wed 11:11:01 AM 39.4169 -107.3869 128° Southeast 427 491 33,000  Level Denver Center
Wed 11:12:42 AM 39.2901 -107.1760 129° Southeast 431 496 33,000  Level FlightAware ADS-B
Wed 11:13:12 AM 39.2524 -107.1160 129° Southeast 431 496 33,000  Level FlightAware ADS-B
Wed 11:13:45 AM 39.2244 -107.0710 129° Southeast 430 495 33,000  Level FlightAware ADS-B
Wed 11:14:15 AM 39.1739 -106.9900 129° Southeast 429 494 33,000  Level FlightAware ADS-B
Wed 11:14:46 AM 39.1360 -106.9290 129° Southeast 428 493 33,000  Level FlightAware ADS-B
Wed 11:15:16 AM 39.0982 -106.8680 129° Southeast 427 491 33,000  Level FlightAware ADS-B
Wed 11:15:46 AM 39.0609 -106.8090 129° Southeast 426 490 33,000  Level FlightAware ADS-B
Wed 11:16:18 AM 39.0219 -106.7470 129° Southeast 425 489 33,000  Level FlightAware ADS-B
Wed 11:16:49 AM 38.9838 -106.6860 129° Southeast 423 487 33,000  Level FlightAware ADS-B
Wed 11:17:23 AM 38.9421 -106.6200 129° Southeast 422 486 33,000  Level FlightAware ADS-B
Wed 11:17:53 AM 38.9046 -106.5610 129° Southeast 422 486 33,000  Level FlightAware ADS-B
Wed 11:18:25 AM 38.8655 -106.4990 129° Southeast 422 486 33,000  Level FlightAware ADS-B
Wed 11:18:58 AM 38.8255 -106.4350 129° Southeast 422 486 33,000  Level FlightAware ADS-B
Wed 11:19:29 AM 38.7865 -106.3740 129° Southeast 422 486 33,000  Level FlightAware ADS-B
Wed 11:20:02 AM 38.7464 -106.3110 129° Southeast 423 487 33,000  Level FlightAware ADS-B
Wed 11:20:34 AM 38.7067 -106.2490 129° Southeast 424 488 33,000  Level FlightAware ADS-B
Wed 11:21:04 AM 38.6691 -106.1900 129° Southeast 425 489 33,000  Level FlightAware ADS-B
Wed 11:21:39 AM 38.6256 -106.1220 129° Southeast 426 490 33,000  Level FlightAware ADS-B
Wed 11:22:10 AM 38.5878 -106.0630 130° Southeast 426 490 33,000  Level FlightAware ADS-B
Wed 11:22:40 AM 38.5496 -106.0040 129° Southeast 427 491 33,000  Level FlightAware ADS-B
Wed 11:23:11 AM 38.5106 -105.9430 129° Southeast 426 490 33,000  Level FlightAware ADS-B
Wed 11:23:41 AM 38.4728 -105.8840 130° Southeast 426 490 33,000  Level FlightAware ADS-B
Wed 11:24:12 AM 38.4348 -105.8260 130° Southeast 426 490 33,000  Level FlightAware ADS-B
Wed 11:24:42 AM 38.3966 -105.7670 129° Southeast 426 490 33,000  Level FlightAware ADS-B
Wed 11:25:13 AM 38.3587 -105.7080 130° Southeast 426 490 33,000  Level FlightAware ADS-B
Wed 11:25:43 AM 38.3211 -105.6500 130° Southeast 425 489 33,000  Level FlightAware ADS-B
Wed 11:26:13 AM 38.2833 -105.5920 130° Southeast 425 489 33,000  Level FlightAware ADS-B
Wed 11:26:43 AM 38.2451 -105.5340 130° Southeast 425 489 33,000  Level FlightAware ADS-B
Wed 11:27:14 AM 38.2068 -105.4750 130° Southeast 425 489 33,000  Level FlightAware ADS-B
Wed 11:27:46 AM 38.1671 -105.4150 130° Southeast 424 488 33,000  Level FlightAware ADS-B
Wed 11:28:17 AM 38.1281 -105.3550 130° Southeast 424 488 33,000  Level FlightAware ADS-B
Wed 11:28:47 AM 38.0903 -105.2970 130° Southeast 425 489 33,000  Level FlightAware ADS-B
Wed 11:29:17 AM 38.0523 -105.2400 130° Southeast 424 488 33,000  Level FlightAware ADS-B
Wed 11:29:47 AM 38.0145 -105.1820 130° Southeast 424 488 33,000  Level FlightAware ADS-B
Wed 11:30:18 AM 37.9757 -105.1230 130° Southeast 423 487 33,000  Level FlightAware ADS-B
Wed 11:30:49 AM 37.9375 -105.0660 130° Southeast 422 486 33,000  Level FlightAware ADS-B
Wed 11:31:19 AM 37.8999 -105.0090 130° Southeast 421 484 33,000  Level FlightAware ADS-B
Wed 11:31:50 AM 37.8612 -104.9510 130° Southeast 421 484 33,000  Level FlightAware ADS-B
Wed 11:32:21 AM 37.8217 -104.8910 130° Southeast 420 483 33,000  Level FlightAware ADS-B
Wed 11:33:03 AM 37.7693 -104.8130 130° Southeast 420 483 33,000  Level FlightAware ADS-B
Wed 11:34:10 AM 37.6854 -104.6870 130° Southeast 419 482 33,000  Level FlightAware ADS-B
Wed 11:35:14 AM 37.6055 -104.5680 130° Southeast 417 480 33,000  Level FlightAware ADS-B
Wed 11:36:15 AM 37.5298 -104.4550 130° Southeast 417 480 33,000  Level FlightAware ADS-B
Wed 11:36:54 AM 37.4804 -104.3820 131° Southeast 421 484 33,000  Level FlightAware ADS-B
Wed 11:37:28 AM 37.4378 -104.3200 131° Southeast 423 487 33,000  Level FlightAware ADS-B
Wed 11:38:07 AM 37.3882 -104.2470 130° Southeast 423 487 33,000  Level FlightAware ADS-B
Wed 11:38:38 AM 37.3482 -104.1880 130° Southeast 424 488 33,000  Level FlightAware ADS-B
Wed 11:39:13 AM 37.3044 -104.1230 131° Southeast 425 489 33,000  Level FlightAware ADS-B
Wed 11:39:48 AM 37.2592 -104.0570 131° Southeast 425 489 33,000  Level FlightAware ADS-B
Wed 11:40:20 AM 37.2182 -103.9970 131° Southeast 426 490 33,000  Level FlightAware ADS-B
Wed 11:40:54 AM 37.1755 -103.9350 130° Southeast 426 490 33,000  Level FlightAware ADS-B
Wed 11:42:19 AM 37.0794 -103.7922 131° Southeast 438 504 33,000  Level Albuquerque Center
Wed 11:43:19 AM 36.9944 -103.6689 130° Southeast 433 498 33,000  Level Albuquerque Center
Wed 11:44:19 AM 36.9178 -103.5556 131° Southeast 433 498 33,000  Level Albuquerque Center
Wed 11:45:19 AM 36.8481 -103.4550 132° Southeast 428 493 33,000  Level Albuquerque Center
Wed 11:46:19 AM 36.7692 -103.3450 130° Southeast 428 493 33,000  Level Albuquerque Center
Wed 11:47:19 AM 36.6858 -103.2225 133° Southeast 428 493 33,000  Level Albuquerque Center
Wed 11:48:19 AM 36.6047 -103.1128 131° Southeast 428 493 33,000  Level Albuquerque Center
Wed 11:49:19 AM 36.5342 -103.0106 132° Southeast 428 493 33,000  Level Albuquerque Center
Wed 11:50:19 AM 36.4528 -102.8964 131° Southeast 434 499 33,000  Level Albuquerque Center
Wed 11:51:19 AM 36.3736 -102.7847 132° Southeast 428 493 33,000  Level Albuquerque Center
Wed 11:52:19 AM 36.2919 -102.6711 132° Southeast 433 498 33,000  Level Albuquerque Center
Wed 11:53:19 AM 36.2036 -102.5475 130° Southeast 444 511 33,000  Level Albuquerque Center
Wed 11:54:19 AM 36.1239 -102.4317 133° Southeast 444 511 33,000  Level Albuquerque Center
Wed 11:55:19 AM 36.0400 -102.3214 131° Southeast 444 511 33,000  Level Albuquerque Center
Wed 11:56:19 AM 35.9600 -102.2083 131° Southeast 444 511 33,000  Level Albuquerque Center
Wed 11:57:19 AM 35.8778 -102.0931 132° Southeast 444 511 33,000  Level Albuquerque Center
Wed 11:58:19 AM 35.7956 -101.9808 132° Southeast 443 510 33,000  Level Albuquerque Center
Wed 11:59:19 AM 35.7133 -101.8686 132° Southeast 450 518 33,000  Level Albuquerque Center
Wed 12:00:19 PM 35.6308 -101.7567 128° Southeast 450 518 33,000  Level Albuquerque Center
Wed 12:01:19 PM 35.5792 -101.6761 133° Southeast 445 512 33,000  Level Albuquerque Center
Wed 12:02:19 PM 35.4744 -101.5381 133° Southeast 456 525 33,000  Level Albuquerque Center
Wed 12:03:19 PM 35.3894 -101.4244 133° Southeast 451 519 33,000  Level Albuquerque Center
Wed 12:04:20 PM 35.3069 -101.3161 132° Southeast 451 519 33,000  Level Albuquerque Center
Wed 12:05:19 PM 35.2239 -101.2028 132° Southeast 451 519 33,000  Level Albuquerque Center
Wed 12:06:19 PM 35.1408 -101.0897 132° Southeast 451 519 33,000  Level Albuquerque Center
Wed 12:07:19 PM 35.0575 -100.9769 133° Southeast 451 519 33,000  Level Albuquerque Center
Wed 12:08:10 PM 34.9767 -100.8697 133° Southeast 451 519 33,000  Level Fort Worth Center
Wed 12:09:10 PM 34.8942 -100.7625 132° Southeast 465 535 33,000  Level Fort Worth Center
Wed 12:10:10 PM 34.8094 -100.6481 133° Southeast 465 535 33,000  Level Fort Worth Center
Wed 12:11:10 PM 34.7206 -100.5336 132° Southeast 460 529 33,000  Level Fort Worth Center
Wed 12:12:10 PM 34.6339 -100.4167 133° Southeast 460 529 33,000  Level Fort Worth Center
Wed 12:13:10 PM 34.5428 -100.3000 132° Southeast 460 529 33,000  Level Fort Worth Center
Wed 12:14:10 PM 34.4536 -100.1814 133° Southeast 460 529 33,000  Level Fort Worth Center
Wed 12:15:10 PM 34.3664 -100.0678 132° Southeast 460 529 33,000  Level Fort Worth Center
Wed 12:16:10 PM 34.2708 -99.9417 134° Southeast 460 529 33,000  Level Fort Worth Center
Wed 12:17:10 PM 34.1833 -99.8311 133° Southeast 460 529 33,000  Level Fort Worth Center
Wed 12:18:10 PM 34.0917 -99.7133 133° Southeast 460 529 33,000  Level Fort Worth Center
Wed 12:19:10 PM 34.0019 -99.5956 133° Southeast 465 535 33,000  Level Fort Worth Center
Wed 12:20:10 PM 33.9244 -99.4961 133° Southeast 459 528 33,000  Level Fort Worth Center
Wed 12:21:10 PM 33.8322 -99.3789 133° Southeast 459 528 33,000  Level Fort Worth Center
Wed 12:22:10 PM 33.7442 -99.2669 133° Southeast 465 535 33,000  Level Fort Worth Center
Wed 12:23:10 PM 33.6561 -99.1553 135° Southeast 460 529 33,000  Level Fort Worth Center
Wed 12:24:10 PM 33.5842 -99.0692 133° Southeast 460 529 33,000  Level Fort Worth Center
Wed 12:25:10 PM 33.4775 -98.9300 133° Southeast 460 529 33,000  Level Fort Worth Center
Wed 12:26:10 PM 33.3892 -98.8167 134° Southeast 465 535 33,000  Level Fort Worth Center
Wed 12:27:10 PM 33.2983 -98.7058 133° Southeast 460 529 33,000  Level Fort Worth Center
Wed 12:28:10 PM 33.2119 -98.5953 134° Southeast 460 529 33,000  Level Fort Worth Center
Wed 12:29:22 PM 33.1189 -98.4800 135° Southeast 460 529 33,000  Level Fort Worth Center
Wed 12:30:22 PM 33.0114 -98.3522 133° Southeast 459 528 33,000  Level Fort Worth Center
Wed 12:31:22 PM 32.9225 -98.2400 135° Southeast 459 528 33,000  Level Fort Worth Center
Wed 12:32:22 PM 32.8292 -98.1278 134° Southeast 464 534 33,000  Level Fort Worth Center
Wed 12:33:22 PM 32.7400 -98.0186 133° Southeast 464 534 33,000  Level Fort Worth Center
Wed 12:35:10 PM 32.5647 -97.7951 135° Southeast 469 540 33,000  Level FlightAware ADS-B
Wed 12:36:22 PM 32.4614 -97.6719 134° Southeast 466 536 33,000  Level Fort Worth Center
Wed 12:37:22 PM 32.3697 -97.5586 132° Southeast 466 536 33,000  Level Fort Worth Center
Wed 12:38:22 PM 32.2800 -97.4428 134° Southeast 466 536 33,000 -364 Level Fort Worth Center
Wed 12:39:34 PM 32.1883 -97.3300 134° Southeast 471 542 32,200 -864 Descending Fort Worth Center
Wed 12:40:34 PM 32.0858 -97.2050 133° Southeast 476 548 31,100 -1,091 Descending Fort Worth Center
Wed 12:41:57 PM 31.9478 -97.0337 134° Southeast 467 537 29,600 -1,050 Descending FlightAware ADS-B
Wed 12:42:34 PM 31.8937 -96.9674 134° Southeast 457 526 29,000 -514 Descending FlightAware ADS-B
Wed 12:43:07 PM 31.8451 -96.9081 134° Southeast 457 526 29,000  Level FlightAware ADS-B
Wed 12:43:43 PM 31.7957 -96.8480 134° Southeast 457 526 29,000  Level FlightAware ADS-B
Wed 12:44:14 PM 31.7475 -96.7895 134° Southeast 457 526 29,000  Level FlightAware ADS-B
Wed 12:44:44 PM 31.7028 -96.7353 134° Southeast 458 527 29,000  Level FlightAware ADS-B
Wed 12:45:17 PM 31.6548 -96.6773 134° Southeast 458 527 29,000  Level FlightAware ADS-B
Wed 12:45:47 PM 31.6094 -96.6223 134° Southeast 460 529 29,000  Level FlightAware ADS-B
Wed 12:46:24 PM 31.5542 -96.5557 139° Southeast 461 531 29,000  Level FlightAware ADS-B
Wed 12:46:36 PM 31.5354 -96.5367 146° Southeast 458 527 29,000  Level FlightAware ADS-B
Wed 12:46:45 PM 31.5196 -96.5240 151° Southeast 455 524 29,000  Level FlightAware ADS-B
Wed 12:46:55 PM 31.5027 -96.5130 158° South 452 520 29,000 -261 Level FlightAware ADS-B
Wed 12:47:08 PM 31.4767 -96.5006 162° South 447 514 28,900 -889 Descending FlightAware ADS-B
Wed 12:47:22 PM 31.4495 -96.4904 157° South 443 510 28,600 -1,355 Descending FlightAware ADS-B
Wed 12:47:39 PM 31.4180 -96.4749 151° Southeast 442 509 28,200 -1,787 Descending FlightAware ADS-B
Wed 12:48:09 PM 31.3640 -96.4405 151° Southeast 437 503 27,200 -2,000 Descending FlightAware ADS-B
Wed 12:48:39 PM 31.3107 -96.4060 151° Southeast 431 496 26,200 -2,066 Descending FlightAware ADS-B
Wed 12:49:10 PM 31.2570 -96.3716 151° Southeast 423 487 25,100 -2,066 Descending FlightAware ADS-B
Wed 12:49:40 PM 31.2057 -96.3387 151° Southeast 418 481 24,100 -1,967 Descending FlightAware ADS-B
Wed 12:50:11 PM 31.1543 -96.3059 151° Southeast 412 474 23,100 -1,967 Descending FlightAware ADS-B
Wed 12:50:41 PM 31.1038 -96.2737 151° Southeast 405 466 22,100 -1,900 Descending FlightAware ADS-B
Wed 12:51:11 PM 31.0546 -96.2424 151° Southeast 399 459 21,200 -1,869 Descending FlightAware ADS-B
Wed 12:51:42 PM 31.0049 -96.2108 151° Southeast 393 452 20,200 -1,839 Descending FlightAware ADS-B
Wed 12:52:13 PM 30.9569 -96.1802 151° Southeast 389 448 19,300 -1,810 Descending FlightAware ADS-B
Wed 12:52:45 PM 30.9066 -96.1483 151° Southeast 384 442 18,300 -1,839 Descending FlightAware ADS-B
Wed 12:53:15 PM 30.8599 -96.1187 152° Southeast 380 437 17,400 -1,900 Descending FlightAware ADS-B
Wed 12:53:45 PM 30.8129 -96.0891 151° Southeast 376 433 16,400 -1,900 Descending FlightAware ADS-B
Wed 12:54:15 PM 30.7671 -96.0601 152° Southeast 371 427 15,500 -1,869 Descending FlightAware ADS-B
Wed 12:54:46 PM 30.7213 -96.0313 151° Southeast 367 422 14,500 -1,869 Descending FlightAware ADS-B
Wed 12:55:16 PM 30.6762 -96.0028 151° Southeast 362 417 13,600 -1,770 Descending FlightAware ADS-B
Wed 12:55:47 PM 30.6319 -95.9747 151° Southeast 358 412 12,700 -1,770 Descending FlightAware ADS-B
Wed 12:56:17 PM 30.5873 -95.9465 152° Southeast 352 405 11,800 -1,770 Descending FlightAware ADS-B
Wed 12:56:48 PM 30.5446 -95.9196 151° Southeast 348 400 10,900 -1,574 Descending FlightAware ADS-B
Wed 12:57:18 PM 30.5017 -95.8925 152° Southeast 338 389 10,200 -1,038 Descending FlightAware ADS-B
Wed 12:57:40 PM 30.4720 -95.8740 151° Southeast 321 369 10,000 -600 Descending FlightAware ADS-B
Wed 12:57:48 PM 30.4627 -95.8679 149° Southeast 316 364 9,900 -462 Descending FlightAware ADS-B
Wed 12:57:53 PM 30.4565 -95.8636 152° Southeast 311 358 9,900  Level FlightAware ADS-B
Wed 12:57:58 PM 30.4494 -95.8593 161° South 303 349 9,900  Level FlightAware ADS-B
Wed 12:58:03 PM 30.4436 -95.8570 166° South 296 341 9,900  Level FlightAware ADS-B
Wed 12:58:07 PM 30.4386 -95.8556 175° South 292 336 9,900  Level FlightAware ADS-B
Wed 12:58:11 PM 30.4321 -95.8549 179° South 285 328 9,900 -600 Level FlightAware ADS-B
Wed 12:58:17 PM 30.4244 -95.8547 181° South 282 325 9,800 -1,333 Descending FlightAware ADS-B
Wed 12:58:29 PM 30.4087 -95.8551 181° South 282 325 9,500 -1,500 Descending FlightAware ADS-B
Wed 12:58:45 PM 30.3885 -95.8556 181° South 284 327 9,100 -1,548 Descending FlightAware ADS-B
Wed 12:59:00 PM 30.3679 -95.8562 181° South 283 326 8,700 -1,548 Descending FlightAware ADS-B
Wed 12:59:16 PM 30.3478 -95.8568 182° South 282 325 8,300 -1,400 Descending FlightAware ADS-B
Wed 12:59:30 PM 30.3294 -95.8576 183° South 282 325 8,000 -1,241 Descending FlightAware ADS-B
Wed 12:59:45 PM 30.3099 -95.8587 183° South 281 323 7,700 -1,400 Descending FlightAware ADS-B
Wed 01:00:00 PM 30.2902 -95.8598 182° South 280 322 7,300 -1,600 Descending FlightAware ADS-B
Wed 01:00:15 PM 30.2704 -95.8608 182° South 279 321 6,900 -1,161 Descending FlightAware ADS-B
Wed 01:00:31 PM 30.2508 -95.8617 182° South 271 312 6,700 -774 Descending FlightAware ADS-B
Wed 01:00:46 PM 30.2323 -95.8626 182° South 261 300 6,500 -600 Descending FlightAware ADS-B
Wed 01:01:01 PM 30.2146 -95.8634 183° South 251 289 6,400 -400 Descending FlightAware ADS-B
Wed 01:01:16 PM 30.1976 -95.8643 183° South 237 273 6,300 -800 Descending FlightAware ADS-B
Wed 01:01:31 PM 30.1812 -95.8652 182° South 234 269 6,000 -1,355 Descending FlightAware ADS-B
Wed 01:01:47 PM 30.1646 -95.8660 183° South 234 269 5,600 -1,548 Descending FlightAware ADS-B
Wed 01:02:02 PM 30.1481 -95.8669 183° South 236 272 5,200 -1,500 Descending FlightAware ADS-B
Wed 01:02:15 PM 30.1331 -95.8677 183° South 234 269 4,900 -1,429 Descending FlightAware ADS-B
Wed 01:02:23 PM 30.1243 -95.8682 183° South 233 268 4,700 -1,500 Descending FlightAware ADS-B
Wed 01:02:39 PM 30.1077 -95.8692 183° South 232 267 4,300 -1,448 Descending FlightAware ADS-B
Wed 01:02:52 PM 30.0931 -95.8702 183° South 232 267 4,000 -1,333 Descending FlightAware ADS-B
Wed 01:02:57 PM 30.0880 -95.8705 180° South 232 267 3,900 -1,500 Descending FlightAware ADS-B
Wed 01:03:00 PM 30.0848 -95.8705 174° South 234 269 3,800 -2,000 Descending FlightAware ADS-B
Wed 01:03:03 PM 30.0815 -95.8701 168° South 233 268 3,700 -2,000 Descending FlightAware ADS-B
Wed 01:03:06 PM 30.0782 -95.8693 160° South 234 269 3,600 -1,714 Descending FlightAware ADS-B
Wed 01:03:10 PM 30.0748 -95.8679 153° Southeast 235 270 3,500 -1,500 Descending FlightAware ADS-B
Wed 01:03:14 PM 30.0710 -95.8657 148° Southeast 234 269 3,400 -1,500 Descending FlightAware ADS-B
Wed 01:03:18 PM 30.0672 -95.8630 147° Southeast 232 267 3,300 -1,263 Descending FlightAware ADS-B
Wed 01:03:33 PM 30.0538 -95.8530 147° Southeast 228 262 3,000 -774 Descending FlightAware ADS-B
Wed 01:03:49 PM 30.0399 -95.8424 131° Southeast 227 261 2,900 -207 Descending FlightAware ADS-B
Wed 01:04:02 PM 30.0308 -95.8304 111° Southeast 224 258 2,900  Level FlightAware ADS-B
Wed 01:04:11 PM 30.0276 -95.8208 108° East 220 253 2,900  Level FlightAware ADS-B
Wed 01:04:27 PM 30.0228 -95.8033 107° East 221 254 2,900  Level FlightAware ADS-B
Wed 01:04:35 PM 30.0201 -95.7933 108° East 220 253 2,900  Level FlightAware ADS-B
Wed 01:04:46 PM 30.0170 -95.7821 108° East 212 244 2,900  Level FlightAware ADS-B
Wed 01:05:02 PM 30.0126 -95.7663 108° East 198 228 2,900  Level FlightAware ADS-B
Wed 01:05:14 PM 30.0090 -95.7533 102° East 193 222 2,900  Level FlightAware ADS-B
Wed 01:05:21 PM 30.0080 -95.7477 99° East 191 220 2,900  Level FlightAware ADS-B
Wed 01:05:24 PM 30.0074 -95.7434 96° East 191 220 2,900  Level FlightAware ADS-B
Wed 01:05:28 PM 30.0071 -95.7401 95° East 190 219 2,900  Level FlightAware ADS-B
Wed 01:05:44 PM 30.0058 -95.7241 93° East 188 216 2,900  Level FlightAware ADS-B
Wed 01:05:50 PM 30.0055 -95.7172 91° East 188 216 2,900  Level FlightAware ADS-B
Wed 01:05:57 PM 30.0054 -95.7106 89° East 188 216 2,900  Level FlightAware ADS-B
Wed 01:06:06 PM 30.0055 -95.7014 89° East 187 215 2,900  Level FlightAware ADS-B
Wed 01:06:22 PM 30.0058 -95.6867 89° East 185 213 2,900  Level FlightAware ADS-B
Wed 01:06:38 PM 30.0061 -95.6710 89° East 187 215 2,900  Level FlightAware ADS-B
Wed 01:06:50 PM 30.0063 -95.6577 90° East 187 215 2,900  Level FlightAware ADS-B
Wed 01:07:06 PM 30.0064 -95.6426 90° East 186 214 2,900  Level FlightAware ADS-B
Wed 01:07:10 PM 30.0064 -95.6381 89° East 187 215 2,900  Level FlightAware ADS-B
Wed 01:07:18 PM 30.0065 -95.6312 89° East 187 215 2,900  Level FlightAware ADS-B

Login

Don't have an account? Register now (free) for customized features, flight alerts, and more!